sensor_id;sensor_type;location;lat;lon;timestamp;pressure;altitude;pressure_sealevel;temperature;humidity
31403;BME280;18039;52.188;21.024;2022-10-16T00:01:30;76126.69;;;-141.45;77.82
31403;BME280;18039;52.188;21.024;2022-10-16T00:03:59;76126.69;;;-141.45;77.72
31403;BME280;18039;52.188;21.024;2022-10-16T00:06:30;76126.69;;;-141.45;77.68
31403;BME280;18039;52.188;21.024;2022-10-16T00:08:58;76126.69;;;-141.45;77.34
31403;BME280;18039;52.188;21.024;2022-10-16T00:11:32;76132.78;;;-141.45;77.45
31403;BME280;18039;52.188;21.024;2022-10-16T00:14:10;76132.78;;;-141.45;77.48
31403;BME280;18039;52.188;21.024;2022-10-16T00:16:38;76124.66;;;-141.45;77.13
31403;BME280;18039;52.188;21.024;2022-10-16T00:19:06;76134.78;;;-141.45;77.06
31403;BME280;18039;52.188;21.024;2022-10-16T00:21:33;76126.69;;;-141.45;77.06
31403;BME280;18039;52.188;21.024;2022-10-16T00:24:04;76126.69;;;-141.45;77.14
31403;BME280;18039;52.188;21.024;2022-10-16T00:26:33;76126.69;;;-141.45;76.76
31403;BME280;18039;52.188;21.024;2022-10-16T00:29:01;76130.75;;;-141.45;76.84
31403;BME280;18039;52.188;21.024;2022-10-16T00:31:29;76130.75;;;-141.45;76.81
31403;BME280;18039;52.188;21.024;2022-10-16T00:33:56;76120.63;;;-141.45;76.92
31403;BME280;18039;52.188;21.024;2022-10-16T00:36:25;76122.63;;;-141.45;77.21
31403;BME280;18039;52.188;21.024;2022-10-16T00:38:54;76128.72;;;-141.45;77.62
31403;BME280;18039;52.188;21.024;2022-10-16T00:41:23;76134.78;;;-141.45;77.84
31403;BME280;18039;52.188;21.024;2022-10-16T00:43:53;76138.84;;;-141.45;77.95
31403;BME280;18039;52.188;21.024;2022-10-16T00:49:04;76155.06;;;-141.45;78.54
31403;BME280;18039;52.188;21.024;2022-10-16T00:51:38;76159.13;;;-141.45;78.40
31403;BME280;18039;52.188;21.024;2022-10-16T00:54:15;76157.09;;;-141.45;78.12
31403;BME280;18039;52.188;21.024;2022-10-16T00:56:44;76159.13;;;-141.45;78.04
31403;BME280;18039;52.188;21.024;2022-10-16T00:59:24;76161.16;;;-141.45;78.02
31403;BME280;18039;52.188;21.024;2022-10-16T01:01:53;76159.13;;;-141.45;77.62
31403;BME280;18039;52.188;21.024;2022-10-16T01:04:20;76155.06;;;-141.45;77.73
31403;BME280;18039;52.188;21.024;2022-10-16T01:09:57;76161.16;;;-141.45;77.67
31403;BME280;18039;52.188;21.024;2022-10-16T01:13:05;76155.06;;;-141.45;77.65
31403;BME280;18039;52.188;21.024;2022-10-16T01:15:44;76163.19;;;-141.45;77.70
31403;BME280;18039;52.188;21.024;2022-10-16T01:18:33;76155.06;;;-141.45;77.70
31403;BME280;18039;52.188;21.024;2022-10-16T01:21:06;76155.06;;;-141.45;77.87
31403;BME280;18039;52.188;21.024;2022-10-16T01:23:43;76159.13;;;-141.45;77.76
31403;BME280;18039;52.188;21.024;2022-10-16T01:28:54;76155.06;;;-141.45;77.79
31403;BME280;18039;52.188;21.024;2022-10-16T01:31:29;76157.09;;;-141.45;77.90
31403;BME280;18039;52.188;21.024;2022-10-16T01:34:10;76161.16;;;-141.45;77.70
31403;BME280;18039;52.188;21.024;2022-10-16T01:36:49;76163.19;;;-141.45;77.99
31403;BME280;18039;52.188;21.024;2022-10-16T01:39:22;76169.25;;;-141.45;77.77
31403;BME280;18039;52.188;21.024;2022-10-16T01:41:55;76169.25;;;-141.45;77.76
31403;BME280;18039;52.188;21.024;2022-10-16T01:44:29;76167.22;;;-141.45;77.68
31403;BME280;18039;52.188;21.024;2022-10-16T01:47:17;76175.34;;;-141.45;77.82
31403;BME280;18039;52.188;21.024;2022-10-16T01:49:49;76171.28;;;-141.45;77.90
31403;BME280;18039;52.188;21.024;2022-10-16T01:52:20;76167.22;;;-141.45;77.82
31403;BME280;18039;52.188;21.024;2022-10-16T01:54:52;76173.31;;;-141.45;78.15
31403;BME280;18039;52.188;21.024;2022-10-16T01:57:23;76179.38;;;-141.45;78.58
31403;BME280;18039;52.188;21.024;2022-10-16T01:59:56;76171.28;;;-141.45;78.62
31403;BME280;18039;52.188;21.024;2022-10-16T02:02:27;76171.28;;;-141.45;78.91
31403;BME280;18039;52.188;21.024;2022-10-16T02:04:59;76175.34;;;-141.45;79.13
31403;BME280;18039;52.188;21.024;2022-10-16T02:07:29;76175.34;;;-141.45;79.17
31403;BME280;18039;52.188;21.024;2022-10-16T02:09:57;76179.38;;;-141.45;79.19
31403;BME280;18039;52.188;21.024;2022-10-16T02:12:27;76179.38;;;-141.45;79.35
31403;BME280;18039;52.188;21.024;2022-10-16T02:14:55;76185.47;;;-141.45;79.29
31403;BME280;18039;52.188;21.024;2022-10-16T02:17:22;76175.34;;;-141.45;79.54
31403;BME280;18039;52.188;21.024;2022-10-16T02:19:52;76179.38;;;-141.45;79.70
31403;BME280;18039;52.188;21.024;2022-10-16T02:22:32;76183.44;;;-141.45;79.83
31403;BME280;18039;52.188;21.024;2022-10-16T02:25:10;76187.50;;;-141.45;79.91
31403;BME280;18039;52.188;21.024;2022-10-16T02:30:38;76179.38;;;-141.45;80.34
31403;BME280;18039;52.188;21.024;2022-10-16T02:33:10;76187.50;;;-141.45;80.43
31403;BME280;18039;52.188;21.024;2022-10-16T02:35:41;76187.50;;;-141.45;80.67
31403;BME280;18039;52.188;21.024;2022-10-16T02:38:09;76193.56;;;-141.45;80.75
31403;BME280;18039;52.188;21.024;2022-10-16T02:40:41;76199.66;;;-141.45;80.89
31403;BME280;18039;52.188;21.024;2022-10-16T02:43:09;76199.66;;;-141.45;80.89
31403;BME280;18039;52.188;21.024;2022-10-16T02:45:37;76205.75;;;-141.45;81.78
31403;BME280;18039;52.188;21.024;2022-10-16T02:48:05;76219.94;;;-141.45;82.30
31403;BME280;18039;52.188;21.024;2022-10-16T02:50:32;76221.94;;;-141.45;82.41
31403;BME280;18039;52.188;21.024;2022-10-16T02:53:00;76232.09;;;-141.45;82.65
31403;BME280;18039;52.188;21.024;2022-10-16T02:55:27;76240.19;;;-141.45;83.27
31403;BME280;18039;52.188;21.024;2022-10-16T02:57:55;76240.19;;;-141.45;83.79
31403;BME280;18039;52.188;21.024;2022-10-16T03:00:22;76244.25;;;-141.45;84.12
31403;BME280;18039;52.188;21.024;2022-10-16T03:02:49;76250.34;;;-141.45;84.09
31403;BME280;18039;52.188;21.024;2022-10-16T03:05:17;76252.34;;;-141.45;84.32
31403;BME280;18039;52.188;21.024;2022-10-16T03:07:44;76260.47;;;-141.45;84.69
31403;BME280;18039;52.188;21.024;2022-10-16T03:10:11;76260.47;;;-141.45;85.46
31403;BME280;18039;52.188;21.024;2022-10-16T03:12:38;76268.56;;;-141.45;85.23
31403;BME280;18039;52.188;21.024;2022-10-16T03:15:06;76270.59;;;-141.45;85.53
31403;BME280;18039;52.188;21.024;2022-10-16T03:17:33;76276.69;;;-141.45;85.50
31403;BME280;18039;52.188;21.024;2022-10-16T03:20:02;76268.56;;;-141.45;85.55
31403;BME280;18039;52.188;21.024;2022-10-16T03:22:29;76272.63;;;-141.45;85.75
31403;BME280;18039;52.188;21.024;2022-10-16T03:24:56;76268.56;;;-141.45;85.64
31403;BME280;18039;52.188;21.024;2022-10-16T03:27:23;76266.53;;;-141.45;85.77
31403;BME280;18039;52.188;21.024;2022-10-16T03:29:51;76272.63;;;-141.45;85.37
31403;BME280;18039;52.188;21.024;2022-10-16T03:32:18;76268.56;;;-141.45;85.08
31403;BME280;18039;52.188;21.024;2022-10-16T03:34:46;76268.56;;;-141.45;84.95
31403;BME280;18039;52.188;21.024;2022-10-16T03:37:13;76264.53;;;-141.45;84.79
31403;BME280;18039;52.188;21.024;2022-10-16T03:39:41;76264.53;;;-141.45;84.51
31403;BME280;18039;52.188;21.024;2022-10-16T03:42:08;76262.50;;;-141.45;84.10
31403;BME280;18039;52.188;21.024;2022-10-16T03:44:35;76260.47;;;-141.45;83.72
31403;BME280;18039;52.188;21.024;2022-10-16T03:47:02;76264.53;;;-141.45;83.45
31403;BME280;18039;52.188;21.024;2022-10-16T03:49:29;76256.41;;;-141.45;83.26
31403;BME280;18039;52.188;21.024;2022-10-16T03:51:56;76256.41;;;-141.45;83.16
31403;BME280;18039;52.188;21.024;2022-10-16T03:54:23;76260.47;;;-141.45;82.97
31403;BME280;18039;52.188;21.024;2022-10-16T03:56:50;76256.41;;;-141.45;83.00
31403;BME280;18039;52.188;21.024;2022-10-16T03:59:17;76270.59;;;-141.45;82.72
31403;BME280;18039;52.188;21.024;2022-10-16T04:01:44;76264.53;;;-141.45;82.53
31403;BME280;18039;52.188;21.024;2022-10-16T04:04:12;76272.63;;;-141.45;82.28
31403;BME280;18039;52.188;21.024;2022-10-16T04:06:39;76280.72;;;-141.45;82.23
31403;BME280;18039;52.188;21.024;2022-10-16T04:09:08;76292.91;;;-141.45;82.22
31403;BME280;18039;52.188;21.024;2022-10-16T04:11:35;76296.94;;;-141.45;82.33
31403;BME280;18039;52.188;21.024;2022-10-16T04:14:02;76305.06;;;-141.45;82.28
31403;BME280;18039;52.188;21.024;2022-10-16T04:16:29;76305.06;;;-141.45;82.42
31403;BME280;18039;52.188;21.024;2022-10-16T04:18:56;76309.13;;;-141.45;82.53
31403;BME280;18039;52.188;21.024;2022-10-16T04:21:24;76317.22;;;-141.45;82.56
31403;BME280;18039;52.188;21.024;2022-10-16T04:23:51;76329.38;;;-141.45;82.67
31403;BME280;18039;52.188;21.024;2022-10-16T04:26:18;76331.41;;;-141.45;82.77
31403;BME280;18039;52.188;21.024;2022-10-16T04:28:45;76331.41;;;-141.45;82.88
31403;BME280;18039;52.188;21.024;2022-10-16T04:31:12;76333.44;;;-141.45;82.97
31403;BME280;18039;52.188;21.024;2022-10-16T04:33:42;76333.44;;;-141.45;82.84
31403;BME280;18039;52.188;21.024;2022-10-16T04:36:10;76323.31;;;-141.45;82.96
31403;BME280;18039;52.188;21.024;2022-10-16T04:38:38;76325.31;;;-141.45;82.88
31403;BME280;18039;52.188;21.024;2022-10-16T04:41:07;76319.25;;;-141.45;82.85
31403;BME280;18039;52.188;21.024;2022-10-16T04:43:35;76313.16;;;-141.45;82.80
31403;BME280;18039;52.188;21.024;2022-10-16T04:46:02;76321.28;;;-141.45;82.67
31403;BME280;18039;52.188;21.024;2022-10-16T04:48:32;76317.22;;;-141.45;82.51
31403;BME280;18039;52.188;21.024;2022-10-16T04:50:59;76321.28;;;-141.45;82.30
31403;BME280;18039;52.188;21.024;2022-10-16T04:53:26;76323.31;;;-141.45;82.31
31403;BME280;18039;52.188;21.024;2022-10-16T04:55:54;76325.31;;;-141.45;82.19
31403;BME280;18039;52.188;21.024;2022-10-16T04:58:22;76325.31;;;-141.45;82.23
31403;BME280;18039;52.188;21.024;2022-10-16T05:00:50;76325.31;;;-141.45;82.00
31403;BME280;18039;52.188;21.024;2022-10-16T05:03:17;76333.44;;;-141.45;81.97
31403;BME280;18039;52.188;21.024;2022-10-16T05:05:45;76325.31;;;-141.45;81.92
31403;BME280;18039;52.188;21.024;2022-10-16T05:08:13;76329.38;;;-141.45;81.88
31403;BME280;18039;52.188;21.024;2022-10-16T05:10:41;76337.50;;;-141.45;82.00
31403;BME280;18039;52.188;21.024;2022-10-16T05:13:09;76343.56;;;-141.45;82.08
31403;BME280;18039;52.188;21.024;2022-10-16T05:15:36;76345.59;;;-141.45;82.02
31403;BME280;18039;52.188;21.024;2022-10-16T05:18:03;76351.69;;;-141.45;82.23
31403;BME280;18039;52.188;21.024;2022-10-16T05:20:30;76353.72;;;-141.45;82.19
31403;BME280;18039;52.188;21.024;2022-10-16T05:22:57;76349.66;;;-141.45;82.38
31403;BME280;18039;52.188;21.024;2022-10-16T05:25:25;76351.69;;;-141.45;82.22
31403;BME280;18039;52.188;21.024;2022-10-16T05:27:52;76349.66;;;-141.45;81.91
31403;BME280;18039;52.188;21.024;2022-10-16T05:30:19;76341.53;;;-141.45;81.95
31403;BME280;18039;52.188;21.024;2022-10-16T05:32:50;76349.66;;;-141.45;81.79
31403;BME280;18039;52.188;21.024;2022-10-16T05:35:18;76349.66;;;-141.45;82.00
31403;BME280;18039;52.188;21.024;2022-10-16T05:37:46;76353.72;;;-141.45;81.83
31403;BME280;18039;52.188;21.024;2022-10-16T05:40:14;76353.72;;;-141.45;81.86
31403;BME280;18039;52.188;21.024;2022-10-16T05:42:41;76349.66;;;-141.45;81.89
31403;BME280;18039;52.188;21.024;2022-10-16T05:45:10;76361.81;;;-141.45;81.99
31403;BME280;18039;52.188;21.024;2022-10-16T05:47:37;76361.81;;;-141.45;82.08
31403;BME280;18039;52.188;21.024;2022-10-16T05:50:05;76361.81;;;-141.45;82.23
31403;BME280;18039;52.188;21.024;2022-10-16T05:52:32;76369.91;;;-141.45;82.47
31403;BME280;18039;52.188;21.024;2022-10-16T05:54:59;76373.97;;;-141.45;82.23
31403;BME280;18039;52.188;21.024;2022-10-16T05:57:27;76373.97;;;-141.45;82.42
31403;BME280;18039;52.188;21.024;2022-10-16T05:59:54;76382.09;;;-141.45;82.47
31403;BME280;18039;52.188;21.024;2022-10-16T06:02:21;76382.09;;;-141.45;82.50
31403;BME280;18039;52.188;21.024;2022-10-16T06:04:48;76392.22;;;-141.45;82.46
31403;BME280;18039;52.188;21.024;2022-10-16T06:07:15;76398.28;;;-141.45;82.63
31403;BME280;18039;52.188;21.024;2022-10-16T06:09:43;76390.19;;;-141.45;82.53
31403;BME280;18039;52.188;21.024;2022-10-16T06:12:10;76382.09;;;-141.45;82.41
31403;BME280;18039;52.188;21.024;2022-10-16T06:14:37;76382.09;;;-141.45;82.30
31403;BME280;18039;52.188;21.024;2022-10-16T06:17:04;76378.03;;;-141.45;82.42
31403;BME280;18039;52.188;21.024;2022-10-16T06:19:31;76378.03;;;-141.45;82.33
31403;BME280;18039;52.188;21.024;2022-10-16T06:21:58;76365.88;;;-141.45;82.27
31403;BME280;18039;52.188;21.024;2022-10-16T06:24:26;76369.91;;;-141.45;82.17
31403;BME280;18039;52.188;21.024;2022-10-16T06:26:53;76363.84;;;-141.45;81.89
31403;BME280;18039;52.188;21.024;2022-10-16T06:29:20;76365.88;;;-141.45;82.00
31403;BME280;18039;52.188;21.024;2022-10-16T06:31:47;76363.84;;;-141.45;81.80
31403;BME280;18039;52.188;21.024;2022-10-16T06:34:14;76357.75;;;-141.45;81.56
31403;BME280;18039;52.188;21.024;2022-10-16T06:36:42;76349.66;;;-141.45;81.48
31403;BME280;18039;52.188;21.024;2022-10-16T06:39:10;76341.53;;;-141.45;81.04
31403;BME280;18039;52.188;21.024;2022-10-16T06:41:37;76341.53;;;-141.45;81.03
31403;BME280;18039;52.188;21.024;2022-10-16T06:44:14;76345.59;;;-141.45;80.70
31403;BME280;18039;52.188;21.024;2022-10-16T06:46:42;76341.53;;;-141.45;80.86
31403;BME280;18039;52.188;21.024;2022-10-16T06:49:09;76333.44;;;-141.45;80.48
31403;BME280;18039;52.188;21.024;2022-10-16T06:51:36;76325.31;;;-141.45;80.15
31403;BME280;18039;52.188;21.024;2022-10-16T06:54:09;76317.22;;;-141.45;80.06
31403;BME280;18039;52.188;21.024;2022-10-16T06:56:36;76309.13;;;-141.45;79.93
31403;BME280;18039;52.188;21.024;2022-10-16T06:59:04;76294.91;;;-141.45;79.79
31403;BME280;18039;52.188;21.024;2022-10-16T07:01:49;76282.75;;;-141.45;79.22
31403;BME280;18039;52.188;21.024;2022-10-16T07:04:16;76272.63;;;-141.45;79.08
31403;BME280;18039;52.188;21.024;2022-10-16T07:06:43;76254.38;;;-141.45;78.81
31403;BME280;18039;52.188;21.024;2022-10-16T07:09:11;76240.19;;;-141.45;78.40
31403;BME280;18039;52.188;21.024;2022-10-16T07:11:39;76223.97;;;-141.45;77.60
31403;BME280;18039;52.188;21.024;2022-10-16T07:14:16;76219.94;;;-141.45;77.30
31403;BME280;18039;52.188;21.024;2022-10-16T07:16:45;76221.94;;;-141.45;77.25
31403;BME280;18039;52.188;21.024;2022-10-16T07:19:12;76226.00;;;-141.45;76.98
31403;BME280;18039;52.188;21.024;2022-10-16T07:21:41;76221.94;;;-141.45;77.10
31403;BME280;18039;52.188;21.024;2022-10-16T07:24:14;76221.94;;;-141.45;76.77
31403;BME280;18039;52.188;21.024;2022-10-16T07:26:44;76226.00;;;-141.45;76.68
31403;BME280;18039;52.188;21.024;2022-10-16T07:29:17;76221.94;;;-141.45;77.05
31403;BME280;18039;52.188;21.024;2022-10-16T07:31:45;76207.78;;;-141.45;77.21
31403;BME280;18039;52.188;21.024;2022-10-16T07:34:14;76191.56;;;-141.45;77.10
31403;BME280;18039;52.188;21.024;2022-10-16T07:36:42;76187.50;;;-141.45;76.69
31403;BME280;18039;52.188;21.024;2022-10-16T07:39:09;76183.44;;;-141.45;76.88
31403;BME280;18039;52.188;21.024;2022-10-16T07:41:36;76179.38;;;-141.45;76.80
31403;BME280;18039;52.188;21.024;2022-10-16T07:44:04;76177.38;;;-141.45;77.05
31403;BME280;18039;52.188;21.024;2022-10-16T07:46:32;76171.28;;;-141.45;77.09
31403;BME280;18039;52.188;21.024;2022-10-16T07:49:00;76155.06;;;-141.45;77.02
31403;BME280;18039;52.188;21.024;2022-10-16T07:51:28;76142.91;;;-141.45;76.84
31403;BME280;18039;52.188;21.024;2022-10-16T07:53:55;76130.75;;;-141.45;76.67
31403;BME280;18039;52.188;21.024;2022-10-16T07:56:23;76118.59;;;-141.45;75.96
31403;BME280;18039;52.188;21.024;2022-10-16T07:58:51;76108.44;;;-141.45;75.48
31403;BME280;18039;52.188;21.024;2022-10-16T08:01:18;76090.22;;;-141.45;74.61
31403;BME280;18039;52.188;21.024;2022-10-16T08:03:50;76074.00;;;-141.45;73.84
31403;BME280;18039;52.188;21.024;2022-10-16T08:06:19;76061.84;;;-141.45;73.57
31403;BME280;18039;52.188;21.024;2022-10-16T08:08:55;76045.63;;;-141.45;73.27
31403;BME280;18039;52.188;21.024;2022-10-16T08:11:22;76033.47;;;-141.45;73.27
31403;BME280;18039;52.188;21.024;2022-10-16T08:13:51;76027.38;;;-141.45;73.00
31403;BME280;18039;52.188;21.024;2022-10-16T08:16:18;76021.31;;;-141.45;72.86
31403;BME280;18039;52.188;21.024;2022-10-16T08:18:46;76013.19;;;-141.45;72.39
31403;BME280;18039;52.188;21.024;2022-10-16T08:21:15;76001.03;;;-141.45;71.47
31403;BME280;18039;52.188;21.024;2022-10-16T08:23:48;75996.97;;;-141.45;71.71
31403;BME280;18039;52.188;21.024;2022-10-16T08:26:24;76001.03;;;-141.45;70.44
31403;BME280;18039;52.188;21.024;2022-10-16T08:28:52;76001.03;;;-141.45;70.92
31403;BME280;18039;52.188;21.024;2022-10-16T08:31:19;75996.97;;;-141.45;71.15
31403;BME280;18039;52.188;21.024;2022-10-16T08:33:47;75988.88;;;-141.45;71.03
31403;BME280;18039;52.188;21.024;2022-10-16T08:36:15;75984.81;;;-141.45;71.21
31403;BME280;18039;52.188;21.024;2022-10-16T08:38:43;75980.75;;;-141.45;71.25
31403;BME280;18039;52.188;21.024;2022-10-16T08:46:36;75988.88;;;-141.45;71.31
31403;BME280;18039;52.188;21.024;2022-10-16T08:49:11;75980.75;;;-141.45;70.99
31403;BME280;18039;52.188;21.024;2022-10-16T08:51:40;75976.72;;;-141.45;71.24
31403;BME280;18039;52.188;21.024;2022-10-16T08:54:32;75964.56;;;-141.45;71.23
31403;BME280;18039;52.188;21.024;2022-10-16T08:57:13;75956.44;;;-141.45;71.09
31403;BME280;18039;52.188;21.024;2022-10-16T08:59:45;75952.38;;;-141.45;70.81
31403;BME280;18039;52.188;21.024;2022-10-16T09:02:27;75944.28;;;-141.45;70.72
31403;BME280;18039;52.188;21.024;2022-10-16T09:08:19;75928.06;;;-141.45;70.26
31403;BME280;18039;52.188;21.024;2022-10-16T09:13:28;75930.09;;;-141.45;70.54
31403;BME280;18039;52.188;21.024;2022-10-16T09:16:46;75924.00;;;-141.45;70.59
31403;BME280;18039;52.188;21.024;2022-10-16T09:19:37;75917.94;;;-141.45;70.64
31403;BME280;18039;52.188;21.024;2022-10-16T09:22:15;75907.81;;;-141.45;70.30
31403;BME280;18039;52.188;21.024;2022-10-16T09:24:43;75903.75;;;-141.45;69.52
31403;BME280;18039;52.188;21.024;2022-10-16T09:27:14;75895.66;;;-141.45;69.71
31403;BME280;18039;52.188;21.024;2022-10-16T09:29:41;75879.44;;;-141.45;69.22
31403;BME280;18039;52.188;21.024;2022-10-16T09:32:14;75855.09;;;-141.45;69.30
31403;BME280;18039;52.188;21.024;2022-10-16T09:34:53;75838.91;;;-141.45;69.03
31403;BME280;18039;52.188;21.024;2022-10-16T09:37:24;75814.56;;;-141.45;68.57
31403;BME280;18039;52.188;21.024;2022-10-16T09:39:54;75802.41;;;-141.45;68.31
31403;BME280;18039;52.188;21.024;2022-10-16T09:42:26;75782.16;;;-141.45;68.04
31403;BME280;18039;52.188;21.024;2022-10-16T09:44:56;75786.19;;;-141.45;67.10
31403;BME280;18039;52.188;21.024;2022-10-16T09:47:26;75782.16;;;-141.45;66.25
31403;BME280;18039;52.188;21.024;2022-10-16T09:50:00;75774.03;;;-141.45;66.71
31403;BME280;18039;52.188;21.024;2022-10-16T09:52:29;75765.94;;;-141.45;66.79
31403;BME280;18039;52.188;21.024;2022-10-16T09:55:08;75765.94;;;-141.45;65.93
31403;BME280;18039;52.188;21.024;2022-10-16T09:57:52;75776.06;;;-141.45;66.47
31403;BME280;18039;52.188;21.024;2022-10-16T10:00:21;75770.00;;;-141.45;66.43
31403;BME280;18039;52.188;21.024;2022-10-16T10:02:49;75765.94;;;-141.45;66.80
31403;BME280;18039;52.188;21.024;2022-10-16T10:07:57;75725.41;;;-141.45;66.67
31403;BME280;18039;52.188;21.024;2022-10-16T10:10:30;75713.25;;;-141.45;66.43
31403;BME280;18039;52.188;21.024;2022-10-16T10:12:59;75711.22;;;-141.45;65.84
31403;BME280;18039;52.188;21.024;2022-10-16T10:15:33;75705.13;;;-141.45;65.96
31403;BME280;18039;52.188;21.024;2022-10-16T10:18:00;75705.13;;;-141.45;65.97
31403;BME280;18039;52.188;21.024;2022-10-16T10:20:34;75692.97;;;-141.45;65.58
31403;BME280;18039;52.188;21.024;2022-10-16T10:23:21;75672.72;;;-141.45;64.79
31403;BME280;18039;52.188;21.024;2022-10-16T10:26:01;75664.59;;;-141.45;64.24
31403;BME280;18039;52.188;21.024;2022-10-16T10:31:28;75644.34;;;-141.45;63.90
31403;BME280;18039;52.188;21.024;2022-10-16T10:36:49;75636.22;;;-141.45;63.58
31403;BME280;18039;52.188;21.024;2022-10-16T10:50:48;75624.06;;;-141.45;62.32
31403;BME280;18039;52.188;21.024;2022-10-16T11:06:50;75583.53;;;-141.45;62.76
31403;BME280;18039;52.188;21.024;2022-10-16T11:09:34;75579.50;;;-141.45;62.69
31403;BME280;18039;52.188;21.024;2022-10-16T11:17:16;75583.53;;;-141.45;62.57
31403;BME280;18039;52.188;21.024;2022-10-16T11:25:31;75601.78;;;-141.45;62.50
31403;BME280;18039;52.188;21.024;2022-10-16T11:33:13;75603.81;;;-141.45;62.91
31403;BME280;18039;52.188;21.024;2022-10-16T11:36:12;75607.88;;;-141.45;62.83
31403;BME280;18039;52.188;21.024;2022-10-16T11:41:35;75595.69;;;-141.45;63.00
31403;BME280;18039;52.188;21.024;2022-10-16T11:50:33;75561.25;;;-141.45;62.29
31403;BME280;18039;52.188;21.024;2022-10-16T11:53:31;75551.13;;;-141.45;62.14
31403;BME280;18039;52.188;21.024;2022-10-16T11:56:04;75551.13;;;-141.45;61.78
31403;BME280;18039;52.188;21.024;2022-10-16T11:58:41;75547.06;;;-141.45;61.52
31403;BME280;18039;52.188;21.024;2022-10-16T12:04:27;75551.13;;;-141.45;61.72
31403;BME280;18039;52.188;21.024;2022-10-16T12:07:05;75555.19;;;-141.45;61.54
31403;BME280;18039;52.188;21.024;2022-10-16T12:09:37;75561.25;;;-141.45;61.69
31403;BME280;18039;52.188;21.024;2022-10-16T12:12:25;75555.19;;;-141.45;61.69
31403;BME280;18039;52.188;21.024;2022-10-16T12:15:20;75551.13;;;-141.45;62.12
31403;BME280;18039;52.188;21.024;2022-10-16T12:18:00;75547.06;;;-141.45;61.27
31403;BME280;18039;52.188;21.024;2022-10-16T12:20:32;75555.19;;;-141.45;61.71
31403;BME280;18039;52.188;21.024;2022-10-16T12:23:04;75561.25;;;-141.45;61.84
31403;BME280;18039;52.188;21.024;2022-10-16T12:25:36;75575.44;;;-141.45;61.89
31403;BME280;18039;52.188;21.024;2022-10-16T12:28:19;75575.44;;;-141.45;62.03
31403;BME280;18039;52.188;21.024;2022-10-16T12:31:07;75589.63;;;-141.45;61.75
31403;BME280;18039;52.188;21.024;2022-10-16T12:33:40;75595.69;;;-141.45;62.04
31403;BME280;18039;52.188;21.024;2022-10-16T12:36:36;75595.69;;;-141.45;62.46
31403;BME280;18039;52.188;21.024;2022-10-16T12:39:03;75591.66;;;-141.45;62.17
31403;BME280;18039;52.188;21.024;2022-10-16T12:41:35;75591.66;;;-141.45;62.53
31403;BME280;18039;52.188;21.024;2022-10-16T12:44:24;75597.72;;;-141.45;62.62
31403;BME280;18039;52.188;21.024;2022-10-16T12:46:53;75603.81;;;-141.45;62.29
31403;BME280;18039;52.188;21.024;2022-10-16T12:49:35;75609.88;;;-141.45;62.54
31403;BME280;18039;52.188;21.024;2022-10-16T12:52:04;75615.97;;;-141.45;62.92
31403;BME280;18039;52.188;21.024;2022-10-16T12:54:36;75620.03;;;-141.45;63.05
31403;BME280;18039;52.188;21.024;2022-10-16T13:20:06;75652.44;;;-141.45;64.43
31403;BME280;18039;52.188;21.024;2022-10-16T13:25:26;75672.72;;;-141.45;64.89
31403;BME280;18039;52.188;21.024;2022-10-16T13:28:00;75680.81;;;-141.45;65.03
31403;BME280;18039;52.188;21.024;2022-10-16T13:30:30;75688.94;;;-141.45;65.40
31403;BME280;18039;52.188;21.024;2022-10-16T13:33:03;75695.00;;;-141.45;65.53
31403;BME280;18039;52.188;21.024;2022-10-16T13:35:32;75707.16;;;-141.45;65.62
31403;BME280;18039;52.188;21.024;2022-10-16T13:38:15;75713.25;;;-141.45;66.04
31403;BME280;18039;52.188;21.024;2022-10-16T13:40:54;75709.19;;;-141.45;66.23
31403;BME280;18039;52.188;21.024;2022-10-16T13:43:26;75717.28;;;-141.45;66.26
31403;BME280;18039;52.188;21.024;2022-10-16T13:46:05;75717.28;;;-141.45;66.62
31403;BME280;18039;52.188;21.024;2022-10-16T13:48:34;75721.34;;;-141.45;66.73
31403;BME280;18039;52.188;21.024;2022-10-16T13:51:18;75721.34;;;-141.45;66.80
31403;BME280;18039;52.188;21.024;2022-10-16T13:53:45;75721.34;;;-141.45;67.11
31403;BME280;18039;52.188;21.024;2022-10-16T13:56:18;75721.34;;;-141.45;67.22
31403;BME280;18039;52.188;21.024;2022-10-16T13:58:46;75725.41;;;-141.45;67.35
31403;BME280;18039;52.188;21.024;2022-10-16T14:01:32;75715.28;;;-141.45;67.50
31403;BME280;18039;52.188;21.024;2022-10-16T14:04:06;75709.19;;;-141.45;67.39
31403;BME280;18039;52.188;21.024;2022-10-16T14:06:36;75701.09;;;-141.45;67.24
31403;BME280;18039;52.188;21.024;2022-10-16T14:09:09;75705.13;;;-141.45;67.44
31403;BME280;18039;52.188;21.024;2022-10-16T14:12:08;75705.13;;;-141.45;67.50
31403;BME280;18039;52.188;21.024;2022-10-16T14:17:16;75707.16;;;-141.45;67.70
31403;BME280;18039;52.188;21.024;2022-10-16T14:19:50;75709.19;;;-141.45;67.54
31403;BME280;18039;52.188;21.024;2022-10-16T14:22:39;75713.25;;;-141.45;67.61
31403;BME280;18039;52.188;21.024;2022-10-16T14:28:04;75721.34;;;-141.45;67.84
31403;BME280;18039;52.188;21.024;2022-10-16T14:30:34;75721.34;;;-141.45;67.92
31403;BME280;18039;52.188;21.024;2022-10-16T14:33:04;75737.56;;;-141.45;68.23
31403;BME280;18039;52.188;21.024;2022-10-16T14:35:37;75741.63;;;-141.45;68.34
31403;BME280;18039;52.188;21.024;2022-10-16T14:38:06;75745.66;;;-141.45;68.56
31403;BME280;18039;52.188;21.024;2022-10-16T14:40:47;75741.63;;;-141.45;68.60
31403;BME280;18039;52.188;21.024;2022-10-16T14:43:21;75745.66;;;-141.45;68.55
31403;BME280;18039;52.188;21.024;2022-10-16T14:45:54;75743.66;;;-141.45;68.63
31403;BME280;18039;52.188;21.024;2022-10-16T14:48:23;75741.63;;;-141.45;68.74